sensor_id;sensor_type;location;lat;lon;timestamp;pressure;altitude;pressure_sealevel;temperature;humidity
42003;BME280;27693;50.506;30.832;2022-07-23T00:00:41;99893.34;;;19.33;64.37
42003;BME280;27693;50.506;30.832;2022-07-23T00:01:43;99906.53;;;19.33;64.35
42003;BME280;27693;50.506;30.832;2022-07-23T00:02:46;99893.34;;;19.33;64.33
42003;BME280;27693;50.506;30.832;2022-07-23T00:03:49;99900.17;;;19.35;64.30
42003;BME280;27693;50.506;30.832;2022-07-23T00:04:52;99896.70;;;19.35;64.36
42003;BME280;27693;50.506;30.832;2022-07-23T00:05:54;99897.67;;;19.34;64.23
42003;BME280;27693;50.506;30.832;2022-07-23T00:06:57;99896.22;;;19.29;64.33
42003;BME280;27693;50.506;30.832;2022-07-23T00:08:00;99900.53;;;19.30;64.30
42003;BME280;27693;50.506;30.832;2022-07-23T00:09:03;99894.17;;;19.33;64.29
42003;BME280;27693;50.506;30.832;2022-07-23T00:10:08;99900.44;;;19.32;64.28
42003;BME280;27693;50.506;30.832;2022-07-23T00:11:10;99904.85;;;19.31;64.27
42003;BME280;27693;50.506;30.832;2022-07-23T00:12:12;99902.94;;;19.34;64.22
42003;BME280;27693;50.506;30.832;2022-07-23T00:13:14;99910.85;;;19.34;64.23
42003;BME280;27693;50.506;30.832;2022-07-23T00:14:17;99906.07;;;19.27;64.42
42003;BME280;27693;50.506;30.832;2022-07-23T00:15:19;99908.20;;;19.22;64.52
42003;BME280;27693;50.506;30.832;2022-07-23T00:16:21;99915.17;;;19.23;64.64
42003;BME280;27693;50.506;30.832;2022-07-23T00:17:24;99909.19;;;19.10;64.91
42003;BME280;27693;50.506;30.832;2022-07-23T00:18:26;99908.95;;;19.13;64.88
42003;BME280;27693;50.506;30.832;2022-07-23T00:19:28;99917.00;;;19.11;65.06
42003;BME280;27693;50.506;30.832;2022-07-23T00:20:31;99913.50;;;19.11;64.91
42003;BME280;27693;50.506;30.832;2022-07-23T00:21:33;99913.52;;;18.99;65.17
42003;BME280;27693;50.506;30.832;2022-07-23T00:22:35;99915.14;;;18.89;65.52
42003;BME280;27693;50.506;30.832;2022-07-23T00:23:38;99919.27;;;18.93;65.45
42003;BME280;27693;50.506;30.832;2022-07-23T00:24:40;99915.14;;;18.89;65.56
42003;BME280;27693;50.506;30.832;2022-07-23T00:25:42;99910.35;;;18.83;65.82
42003;BME280;27693;50.506;30.832;2022-07-23T00:26:45;99911.91;;;18.86;65.83
42003;BME280;27693;50.506;30.832;2022-07-23T00:27:47;99910.13;;;18.86;65.93
42003;BME280;27693;50.506;30.832;2022-07-23T00:28:49;99909.87;;;18.89;65.78
42003;BME280;27693;50.506;30.832;2022-07-23T00:29:52;99919.47;;;18.90;65.86
42003;BME280;27693;50.506;30.832;2022-07-23T00:30:55;99914.45;;;18.87;65.85
42003;BME280;27693;50.506;30.832;2022-07-23T00:31:57;99918.86;;;18.87;65.85
42003;BME280;27693;50.506;30.832;2022-07-23T00:33:02;99918.04;;;18.86;66.13
42003;BME280;27693;50.506;30.832;2022-07-23T00:34:04;99914.45;;;18.87;65.95
42003;BME280;27693;50.506;30.832;2022-07-23T00:35:08;99910.95;;;18.87;65.98
42003;BME280;27693;50.506;30.832;2022-07-23T00:36:11;99913.46;;;18.88;65.94
42003;BME280;27693;50.506;30.832;2022-07-23T00:37:13;99914.19;;;18.90;65.98
42003;BME280;27693;50.506;30.832;2022-07-23T00:38:16;99912.52;;;18.89;65.96
42003;BME280;27693;50.506;30.832;2022-07-23T00:39:20;99908.92;;;18.90;65.93
42003;BME280;27693;50.506;30.832;2022-07-23T00:40:24;99911.55;;;18.90;66.03
42003;BME280;27693;50.506;30.832;2022-07-23T00:41:26;99908.92;;;18.90;66.08
42003;BME280;27693;50.506;30.832;2022-07-23T00:42:31;99915.91;;;18.91;66.15
42003;BME280;27693;50.506;30.832;2022-07-23T00:43:33;99907.88;;;18.93;66.03
42003;BME280;27693;50.506;30.832;2022-07-23T00:44:35;99912.31;;;18.92;66.07
42003;BME280;27693;50.506;30.832;2022-07-23T00:45:39;99910.63;;;18.91;66.03
42003;BME280;27693;50.506;30.832;2022-07-23T00:46:48;99911.36;;;18.93;66.01
42003;BME280;27693;50.506;30.832;2022-07-23T00:47:50;99909.87;;;18.89;66.26
42003;BME280;27693;50.506;30.832;2022-07-23T00:48:52;99909.40;;;18.84;66.42
42003;BME280;27693;50.506;30.832;2022-07-23T00:49:55;99913.94;;;18.82;66.51
42003;BME280;27693;50.506;30.832;2022-07-23T00:50:58;99920.07;;;18.82;66.43
42003;BME280;27693;50.506;30.832;2022-07-23T00:52:02;99914.89;;;18.81;66.52
42003;BME280;27693;50.506;30.832;2022-07-23T00:53:05;99917.66;;;18.79;66.53
42003;BME280;27693;50.506;30.832;2022-07-23T00:54:07;99912.26;;;18.81;66.44
42003;BME280;27693;50.506;30.832;2022-07-23T00:55:10;99921.02;;;18.81;66.55
42003;BME280;27693;50.506;30.832;2022-07-23T00:56:13;99915.15;;;18.78;66.68
42003;BME280;27693;50.506;30.832;2022-07-23T00:57:16;99923.05;;;18.78;66.67
42003;BME280;27693;50.506;30.832;2022-07-23T00:58:18;99915.15;;;18.78;66.64
42003;BME280;27693;50.506;30.832;2022-07-23T00:59:21;99917.78;;;18.78;66.55
42003;BME280;27693;50.506;30.832;2022-07-23T01:00:23;99921.25;;;18.78;66.59
42003;BME280;27693;50.506;30.832;2022-07-23T01:01:26;99927.12;;;18.71;67.04
42003;BME280;27693;50.506;30.832;2022-07-23T01:02:28;99922.20;;;18.66;67.12
42003;BME280;27693;50.506;30.832;2022-07-23T01:03:31;99925.42;;;18.58;67.51
42003;BME280;27693;50.506;30.832;2022-07-23T01:04:35;99928.89;;;18.59;67.56
42003;BME280;27693;50.506;30.832;2022-07-23T01:05:38;99923.49;;;18.60;67.39
42003;BME280;27693;50.506;30.832;2022-07-23T01:06:43;99926.03;;;18.62;67.45
42003;BME280;27693;50.506;30.832;2022-07-23T01:07:46;99924.22;;;18.62;67.38
42003;BME280;27693;50.506;30.832;2022-07-23T01:08:48;99913.56;;;18.64;67.30
42003;BME280;27693;50.506;30.832;2022-07-23T01:09:51;99924.22;;;18.62;67.51
42003;BME280;27693;50.506;30.832;2022-07-23T01:10:55;99906.72;;;18.50;67.51
42003;BME280;27693;50.506;30.832;2022-07-23T01:11:58;99922.06;;;18.56;67.76
42003;BME280;27693;50.506;30.832;2022-07-23T01:13:07;99928.06;;;18.58;67.56
42003;BME280;27693;50.506;30.832;2022-07-23T01:14:17;99928.77;;;18.60;67.50
42003;BME280;27693;50.506;30.832;2022-07-23T01:15:21;99928.55;;;18.63;67.50
42003;BME280;27693;50.506;30.832;2022-07-23T01:16:24;99929.37;;;18.64;67.54
42003;BME280;27693;50.506;30.832;2022-07-23T01:17:27;99921.37;;;18.65;67.57
42003;BME280;27693;50.506;30.832;2022-07-23T01:18:30;99932.13;;;18.62;67.77
42003;BME280;27693;50.506;30.832;2022-07-23T01:19:32;99928.77;;;18.60;67.72
42003;BME280;27693;50.506;30.832;2022-07-23T01:20:35;99934.16;;;18.59;67.81
42003;BME280;27693;50.506;30.832;2022-07-23T01:21:40;99937.65;;;18.59;67.67
42003;BME280;27693;50.506;30.832;2022-07-23T01:22:43;99933.20;;;18.60;67.72
42003;BME280;27693;50.506;30.832;2022-07-23T01:23:46;99938.34;;;18.61;67.67
42003;BME280;27693;50.506;30.832;2022-07-23T01:24:48;99938.72;;;18.57;67.77
42003;BME280;27693;50.506;30.832;2022-07-23T01:25:53;99946.97;;;18.52;68.01
42003;BME280;27693;50.506;30.832;2022-07-23T01:26:56;99942.88;;;18.48;68.12
42003;BME280;27693;50.506;30.832;2022-07-23T01:27:59;99936.66;;;18.49;68.00
42003;BME280;27693;50.506;30.832;2022-07-23T01:29:02;99935.92;;;18.47;68.06
42003;BME280;27693;50.506;30.832;2022-07-23T01:30:07;99939.53;;;18.46;68.27
42003;BME280;27693;50.506;30.832;2022-07-23T01:31:09;99931.02;;;18.42;68.33
42003;BME280;27693;50.506;30.832;2022-07-23T01:32:12;99937.95;;;18.43;68.28
42003;BME280;27693;50.506;30.832;2022-07-23T01:33:14;99934.22;;;18.34;68.56
42003;BME280;27693;50.506;30.832;2022-07-23T01:34:17;99938.78;;;18.32;68.71
42003;BME280;27693;50.506;30.832;2022-07-23T01:35:20;99940.68;;;18.30;68.76
42003;BME280;27693;50.506;30.832;2022-07-23T01:36:23;99934.16;;;18.12;69.51
42003;BME280;27693;50.506;30.832;2022-07-23T01:37:26;99938.91;;;18.07;69.86
42003;BME280;27693;50.506;30.832;2022-07-23T01:38:29;99943.00;;;18.11;69.68
42003;BME280;27693;50.506;30.832;2022-07-23T01:39:31;99941.94;;;18.13;69.61
42003;BME280;27693;50.506;30.832;2022-07-23T01:40:35;99939.18;;;18.15;69.52
42003;BME280;27693;50.506;30.832;2022-07-23T01:41:38;99940.86;;;18.16;69.53
42003;BME280;27693;50.506;30.832;2022-07-23T01:42:41;99935.59;;;18.16;69.49
42003;BME280;27693;50.506;30.832;2022-07-23T01:43:46;99939.92;;;18.17;69.53
42003;BME280;27693;50.506;30.832;2022-07-23T01:44:48;99938.35;;;18.14;69.58
42003;BME280;27693;50.506;30.832;2022-07-23T01:45:52;99934.77;;;18.15;69.56
42003;BME280;27693;50.506;30.832;2022-07-23T01:46:56;99945.91;;;18.19;69.45
42003;BME280;27693;50.506;30.832;2022-07-23T01:47:59;99935.59;;;18.16;69.55
42003;BME280;27693;50.506;30.832;2022-07-23T01:49:02;99937.28;;;18.17;69.48
42003;BME280;27693;50.506;30.832;2022-07-23T01:50:13;99930.33;;;18.16;69.58
42003;BME280;27693;50.506;30.832;2022-07-23T01:51:17;99933.70;;;18.18;69.52
42003;BME280;27693;50.506;30.832;2022-07-23T01:52:21;99936.09;;;18.21;69.44
42003;BME280;27693;50.506;30.832;2022-07-23T01:53:25;99922.92;;;18.21;69.41
42003;BME280;27693;50.506;30.832;2022-07-23T01:54:29;99932.63;;;18.20;69.57
42003;BME280;27693;50.506;30.832;2022-07-23T01:55:32;99929.88;;;18.22;69.57
42003;BME280;27693;50.506;30.832;2022-07-23T01:56:34;99935.14;;;18.22;69.62
42003;BME280;27693;50.506;30.832;2022-07-23T01:57:37;99938.50;;;18.24;69.55
42003;BME280;27693;50.506;30.832;2022-07-23T01:58:41;99938.72;;;18.21;69.68
42003;BME280;27693;50.506;30.832;2022-07-23T01:59:43;99941.14;;;18.24;69.52
42003;BME280;27693;50.506;30.832;2022-07-23T02:00:47;99941.14;;;18.24;69.52
42003;BME280;27693;50.506;30.832;2022-07-23T02:01:49;99941.84;;;18.26;69.60
42003;BME280;27693;50.506;30.832;2022-07-23T02:02:52;99935.88;;;18.24;69.69
42003;BME280;27693;50.506;30.832;2022-07-23T02:03:55;99945.34;;;18.27;69.46
42003;BME280;27693;50.506;30.832;2022-07-23T02:04:57;99937.56;;;18.25;69.68
42003;BME280;27693;50.506;30.832;2022-07-23T02:06:01;99943.53;;;18.27;69.52
42003;BME280;27693;50.506;30.832;2022-07-23T02:07:05;99946.89;;;18.29;69.57
42003;BME280;27693;50.506;30.832;2022-07-23T02:08:07;99943.31;;;18.30;69.64
42003;BME280;27693;50.506;30.832;2022-07-23T02:09:11;99946.89;;;18.29;69.56
42003;BME280;27693;50.506;30.832;2022-07-23T02:10:14;99949.04;;;18.24;69.69
42003;BME280;27693;50.506;30.832;2022-07-23T02:11:16;99955.59;;;18.18;69.84
42003;BME280;27693;50.506;30.832;2022-07-23T02:12:19;99949.95;;;18.12;70.07
42003;BME280;27693;50.506;30.832;2022-07-23T02:13:22;99950.63;;;18.02;70.46
42003;BME280;27693;50.506;30.832;2022-07-23T02:14:25;99950.74;;;18.01;70.64
42003;BME280;27693;50.506;30.832;2022-07-23T02:15:27;99953.13;;;18.04;70.42
42003;BME280;27693;50.506;30.832;2022-07-23T02:16:30;99950.50;;;18.04;70.52
42003;BME280;27693;50.506;30.832;2022-07-23T02:17:35;99956.50;;;18.06;70.59
42003;BME280;27693;50.506;30.832;2022-07-23T02:18:37;99950.50;;;18.04;70.52
42003;BME280;27693;50.506;30.832;2022-07-23T02:19:39;99955.89;;;18.02;70.56
42003;BME280;27693;50.506;30.832;2022-07-23T02:20:42;99953.75;;;18.08;70.50
42003;BME280;27693;50.506;30.832;2022-07-23T02:21:45;99951.00;;;18.09;70.39
42003;BME280;27693;50.506;30.832;2022-07-23T02:22:47;99948.55;;;18.19;70.16
42003;BME280;27693;50.506;30.832;2022-07-23T02:23:49;99951.67;;;18.24;69.95
42003;BME280;27693;50.506;30.832;2022-07-23T02:24:52;99952.90;;;18.31;69.66
42003;BME280;27693;50.506;30.832;2022-07-23T02:25:54;99956.75;;;18.39;69.79
42003;BME280;27693;50.506;30.832;2022-07-23T02:26:56;99954.82;;;18.41;69.22
42003;BME280;27693;50.506;30.832;2022-07-23T02:27:59;99959.60;;;18.35;69.18
42003;BME280;27693;50.506;30.832;2022-07-23T02:29:02;99957.89;;;18.23;69.59
42003;BME280;27693;50.506;30.832;2022-07-23T02:30:06;99958.64;;;18.01;70.46
42003;BME280;27693;50.506;30.832;2022-07-23T02:31:09;99955.19;;;17.87;71.02
42003;BME280;27693;50.506;30.832;2022-07-23T02:32:12;99955.52;;;17.83;71.28
42003;BME280;27693;50.506;30.832;2022-07-23T02:33:14;99956.34;;;17.83;71.34
42003;BME280;27693;50.506;30.832;2022-07-23T02:34:16;99958.59;;;17.77;71.60
42003;BME280;27693;50.506;30.832;2022-07-23T02:35:18;99959.31;;;17.79;71.62
42003;BME280;27693;50.506;30.832;2022-07-23T02:36:21;99958.86;;;17.85;71.69
42003;BME280;27693;50.506;30.832;2022-07-23T02:37:24;99954.58;;;17.84;71.54
42003;BME280;27693;50.506;30.832;2022-07-23T02:38:26;99957.06;;;17.61;72.28
42003;BME280;27693;50.506;30.832;2022-07-23T02:39:28;99955.64;;;17.44;73.01
42003;BME280;27693;50.506;30.832;2022-07-23T02:40:32;99953.33;;;17.39;73.30
42003;BME280;27693;50.506;30.832;2022-07-23T02:41:34;99958.38;;;17.43;73.33
42003;BME280;27693;50.506;30.832;2022-07-23T02:42:37;99959.77;;;17.35;73.60
42003;BME280;27693;50.506;30.832;2022-07-23T02:43:41;99965.34;;;17.31;73.89
42003;BME280;27693;50.506;30.832;2022-07-23T02:44:44;99965.34;;;17.31;73.89
42003;BME280;27693;50.506;30.832;2022-07-23T02:45:46;99963.03;;;17.26;74.18
42003;BME280;27693;50.506;30.832;2022-07-23T02:46:48;99961.97;;;17.29;74.18
42003;BME280;27693;50.506;30.832;2022-07-23T02:47:52;99964.72;;;17.27;74.17
42003;BME280;27693;50.506;30.832;2022-07-23T02:48:55;99968.09;;;17.29;74.22
42003;BME280;27693;50.506;30.832;2022-07-23T02:49:57;99964.79;;;17.38;74.34
42003;BME280;27693;50.506;30.832;2022-07-23T02:51:00;99954.89;;;17.42;73.74
42003;BME280;27693;50.506;30.832;2022-07-23T02:52:04;99966.59;;;17.25;74.34
42003;BME280;27693;50.506;30.832;2022-07-23T02:53:06;99956.90;;;17.38;74.42
42003;BME280;27693;50.506;30.832;2022-07-23T02:54:09;99957.95;;;17.49;73.72
42003;BME280;27693;50.506;30.832;2022-07-23T02:55:11;99958.87;;;17.61;73.38
42003;BME280;27693;50.506;30.832;2022-07-23T02:56:14;99958.56;;;17.52;73.34
42003;BME280;27693;50.506;30.832;2022-07-23T02:57:17;99961.08;;;17.54;73.36
42003;BME280;27693;50.506;30.832;2022-07-23T02:58:20;99958.15;;;17.46;73.60
42003;BME280;27693;50.506;30.832;2022-07-23T02:59:22;99955.84;;;17.41;73.99
42003;BME280;27693;50.506;30.832;2022-07-23T03:00:25;99964.66;;;17.53;73.81
42003;BME280;27693;50.506;30.832;2022-07-23T03:01:28;99961.88;;;17.67;73.24
42003;BME280;27693;50.506;30.832;2022-07-23T03:02:31;99971.52;;;17.80;73.14
42003;BME280;27693;50.506;30.832;2022-07-23T03:03:33;99968.97;;;17.91;72.70
42003;BME280;27693;50.506;30.832;2022-07-23T03:04:35;99968.97;;;17.91;72.43
42003;BME280;27693;50.506;30.832;2022-07-23T03:05:37;99975.27;;;18.01;72.40
42003;BME280;27693;50.506;30.832;2022-07-23T03:06:40;99969.55;;;18.08;72.11
42003;BME280;27693;50.506;30.832;2022-07-23T03:07:42;99967.86;;;18.07;71.60
42003;BME280;27693;50.506;30.832;2022-07-23T03:08:44;99972.46;;;18.16;71.61
42003;BME280;27693;50.506;30.832;2022-07-23T03:09:46;99974.30;;;18.27;71.40
42003;BME280;27693;50.506;30.832;2022-07-23T03:10:49;99972.77;;;18.35;70.88
42003;BME280;27693;50.506;30.832;2022-07-23T03:11:51;99973.53;;;18.49;70.50
42003;BME280;27693;50.506;30.832;2022-07-23T03:12:54;99980.02;;;18.56;70.23
42003;BME280;27693;50.506;30.832;2022-07-23T03:13:58;99984.83;;;18.62;70.04
42003;BME280;27693;50.506;30.832;2022-07-23T03:15:00;99976.66;;;18.54;69.55
42003;BME280;27693;50.506;30.832;2022-07-23T03:16:03;99976.66;;;18.54;69.55
42003;BME280;27693;50.506;30.832;2022-07-23T03:17:06;99984.53;;;18.43;69.93
42003;BME280;27693;50.506;30.832;2022-07-23T03:18:08;99986.36;;;18.18;70.76
42003;BME280;27693;50.506;30.832;2022-07-23T03:19:10;99990.39;;;18.11;71.09
42003;BME280;27693;50.506;30.832;2022-07-23T03:20:13;99981.77;;;18.09;71.41
42003;BME280;27693;50.506;30.832;2022-07-23T03:21:15;99991.05;;;18.01;71.77
42003;BME280;27693;50.506;30.832;2022-07-23T03:22:17;99987.03;;;18.09;71.67
42003;BME280;27693;50.506;30.832;2022-07-23T03:23:20;99988.47;;;18.13;71.43
42003;BME280;27693;50.506;30.832;2022-07-23T03:24:23;99989.61;;;18.22;71.41
42003;BME280;27693;50.506;30.832;2022-07-23T03:25:25;99983.03;;;18.27;70.98
42003;BME280;27693;50.506;30.832;2022-07-23T03:26:29;99982.78;;;18.19;71.28
42003;BME280;27693;50.506;30.832;2022-07-23T03:27:31;99978.95;;;18.23;71.25
42003;BME280;27693;50.506;30.832;2022-07-23T03:28:33;99980.30;;;18.29;71.11
42003;BME280;27693;50.506;30.832;2022-07-23T03:29:36;99982.70;;;18.32;70.94
42003;BME280;27693;50.506;30.832;2022-07-23T03:30:38;99981.87;;;18.31;71.11
42003;BME280;27693;50.506;30.832;2022-07-23T03:31:40;99985.20;;;18.33;71.05
42003;BME280;27693;50.506;30.832;2022-07-23T03:32:43;99984.53;;;18.43;70.64
42003;BME280;27693;50.506;30.832;2022-07-23T03:33:45;99984.07;;;18.49;70.50
42003;BME280;27693;50.506;30.832;2022-07-23T03:34:48;99977.64;;;18.53;70.42
42003;BME280;27693;50.506;30.832;2022-07-23T03:35:50;99975.83;;;18.54;70.46
42003;BME280;27693;50.506;30.832;2022-07-23T03:37:01;99979.29;;;18.54;70.46
42003;BME280;27693;50.506;30.832;2022-07-23T03:38:04;99981.44;;;18.49;70.50
42003;BME280;27693;50.506;30.832;2022-07-23T03:39:07;99979.45;;;18.28;71.39
42003;BME280;27693;50.506;30.832;2022-07-23T03:40:12;99983.31;;;18.35;71.35
42003;BME280;27693;50.506;30.832;2022-07-23T03:41:14;99982.72;;;18.43;71.14
42003;BME280;27693;50.506;30.832;2022-07-23T03:42:17;99980.02;;;18.56;70.94
42003;BME280;27693;50.506;30.832;2022-07-23T03:43:21;99985.30;;;18.56;70.71
42003;BME280;27693;50.506;30.832;2022-07-23T03:44:23;99985.75;;;18.50;71.00
42003;BME280;27693;50.506;30.832;2022-07-23T03:45:25;99988.05;;;18.55;70.92
42003;BME280;27693;50.506;30.832;2022-07-23T03:46:29;99982.63;;;18.45;71.11
42003;BME280;27693;50.506;30.832;2022-07-23T03:47:31;99984.68;;;18.52;70.96
42003;BME280;27693;50.506;30.832;2022-07-23T03:48:34;99990.09;;;18.62;70.92
42003;BME280;27693;50.506;30.832;2022-07-23T03:49:36;99986.30;;;18.66;70.56
42003;BME280;27693;50.506;30.832;2022-07-23T03:50:38;99995.41;;;18.74;70.60
42003;BME280;27693;50.506;30.832;2022-07-23T03:51:42;99990.38;;;18.82;70.22
42003;BME280;27693;50.506;30.832;2022-07-23T03:52:44;99988.69;;;18.81;70.44
42003;BME280;27693;50.506;30.832;2022-07-23T03:53:47;99990.38;;;18.82;70.19
42003;BME280;27693;50.506;30.832;2022-07-23T03:54:49;99986.44;;;18.76;70.30
42003;BME280;27693;50.506;30.832;2022-07-23T03:55:52;99995.17;;;18.88;70.03
42003;BME280;27693;50.506;30.832;2022-07-23T03:56:54;99995.17;;;18.88;70.03
42003;BME280;27693;50.506;30.832;2022-07-23T03:57:57;99997.33;;;18.83;70.39
42003;BME280;27693;50.506;30.832;2022-07-23T03:59:00;99986.53;;;18.75;70.58
42003;BME280;27693;50.506;30.832;2022-07-23T04:00:05;99991.84;;;18.86;70.51
42003;BME280;27693;50.506;30.832;2022-07-23T04:01:10;99990.93;;;18.98;70.08
42003;BME280;27693;50.506;30.832;2022-07-23T04:02:13;99988.77;;;19.04;69.66
42003;BME280;27693;50.506;30.832;2022-07-23T04:03:15;99983.75;;;19.01;69.38
42003;BME280;27693;50.506;30.832;2022-07-23T04:04:19;99994.77;;;19.06;69.37
42003;BME280;27693;50.506;30.832;2022-07-23T04:05:22;99982.41;;;19.06;69.24
42003;BME280;27693;50.506;30.832;2022-07-23T04:06:27;99994.30;;;19.01;69.65
42003;BME280;27693;50.506;30.832;2022-07-23T04:07:31;99994.77;;;18.94;69.81
42003;BME280;27693;50.506;30.832;2022-07-23T04:08:33;99997.62;;;18.91;70.15
42003;BME280;27693;50.506;30.832;2022-07-23T04:09:36;99992.13;;;18.94;70.07
42003;BME280;27693;50.506;30.832;2022-07-23T04:10:38;99993.78;;;18.95;70.03
42003;BME280;27693;50.506;30.832;2022-07-23T04:11:42;99991.15;;;18.95;69.87
42003;BME280;27693;50.506;30.832;2022-07-23T04:12:44;99992.23;;;18.93;69.88
42003;BME280;27693;50.506;30.832;2022-07-23T04:13:47;99988.64;;;18.94;69.82
42003;BME280;27693;50.506;30.832;2022-07-23T04:14:49;99993.56;;;18.98;69.78
42003;BME280;27693;50.506;30.832;2022-07-23T04:15:52;99993.82;;;19.07;69.65
42003;BME280;27693;50.506;30.832;2022-07-23T04:16:55;99985.66;;;18.98;69.77
42003;BME280;27693;50.506;30.832;2022-07-23T04:17:57;99989.24;;;18.97;69.77
42003;BME280;27693;50.506;30.832;2022-07-23T04:19:01;99989.02;;;19.01;69.76
42003;BME280;27693;50.506;30.832;2022-07-23T04:20:07;99988.77;;;19.04;69.57
42003;BME280;27693;50.506;30.832;2022-07-23T04:21:11;99994.30;;;19.01;69.67
42003;BME280;27693;50.506;30.832;2022-07-23T04:22:14;99986.26;;;19.02;69.60
42003;BME280;27693;50.506;30.832;2022-07-23T04:23:17;99999.09;;;19.07;69.66
42003;BME280;27693;50.506;30.832;2022-07-23T04:24:21;99989.97;;;19.11;69.48
42003;BME280;27693;50.506;30.832;2022-07-23T04:25:23;99993.34;;;19.13;69.44
42003;BME280;27693;50.506;30.832;2022-07-23T04:26:28;99991.44;;;19.15;69.55
42003;BME280;27693;50.506;30.832;2022-07-23T04:27:31;99987.11;;;19.14;69.59
42003;BME280;27693;50.506;30.832;2022-07-23T04:28:34;99993.09;;;19.16;69.51
42003;BME280;27693;50.506;30.832;2022-07-23T04:29:36;99989.50;;;19.17;69.75
42003;BME280;27693;50.506;30.832;2022-07-23T04:30:38;99988.41;;;19.20;69.84
42003;BME280;27693;50.506;30.832;2022-07-23T04:31:41;99987.33;;;19.22;69.81
42003;BME280;27693;50.506;30.832;2022-07-23T04:32:43;99992.38;;;19.25;69.70
42003;BME280;27693;50.506;30.832;2022-07-23T04:33:50;99993.81;;;19.29;69.20
42003;BME280;27693;50.506;30.832;2022-07-23T04:34:52;99990.81;;;19.34;69.10
42003;BME280;27693;50.506;30.832;2022-07-23T04:35:55;99993.58;;;19.33;69.17
42003;BME280;27693;50.506;30.832;2022-07-23T04:36:58;99987.22;;;19.35;69.45
42003;BME280;27693;50.506;30.832;2022-07-23T04:38:01;99996.47;;;19.41;69.09
42003;BME280;27693;50.506;30.832;2022-07-23T04:39:04;99991.19;;;19.41;68.94
42003;BME280;27693;50.506;30.832;2022-07-23T04:40:09;99987.09;;;19.37;68.98
42003;BME280;27693;50.506;30.832;2022-07-23T04:41:11;99993.09;;;19.39;68.83
42003;BME280;27693;50.506;30.832;2022-07-23T04:42:14;99985.91;;;19.41;69.25
42003;BME280;27693;50.506;30.832;2022-07-23T04:43:16;99989.02;;;19.46;68.82
42003;BME280;27693;50.506;30.832;2022-07-23T04:44:23;99985.16;;;19.50;68.67
42003;BME280;27693;50.506;30.832;2022-07-23T04:45:26;99992.13;;;19.51;68.72
42003;BME280;27693;50.506;30.832;2022-07-23T04:46:30;99998.48;;;19.48;68.96
42003;BME280;27693;50.506;30.832;2022-07-23T04:47:33;99992.61;;;19.45;68.79
42003;BME280;27693;50.506;30.832;2022-07-23T04:48:37;99998.48;;;19.48;68.87
42003;BME280;27693;50.506;30.832;2022-07-23T04:49:41;99995.49;;;19.53;68.72
42003;BME280;27693;50.506;30.832;2022-07-23T04:50:44;99988.30;;;19.55;68.73
42003;BME280;27693;50.506;30.832;2022-07-23T04:51:58;99998.59;;;19.58;68.65
42003;BME280;27693;50.506;30.832;2022-07-23T04:53:01;99991.63;;;19.57;68.58
42003;BME280;27693;50.506;30.832;2022-07-23T04:54:04;99991.63;;;19.57;68.85
42003;BME280;27693;50.506;30.832;2022-07-23T04:55:08;99989.39;;;19.53;68.78
42003;BME280;27693;50.506;30.832;2022-07-23T04:56:10;99995.36;;;19.55;68.95
42003;BME280;27693;50.506;30.832;2022-07-23T04:57:13;99995.13;;;19.58;68.56
42003;BME280;27693;50.506;30.832;2022-07-23T04:58:15;99996.19;;;19.67;68.60
42003;BME280;27693;50.506;30.832;2022-07-23T04:59:18;99997.88;;;19.68;68.70
42003;BME280;27693;50.506;30.832;2022-07-23T05:00:21;99997.88;;;19.68;68.70
42003;BME280;27693;50.506;30.832;2022-07-23T05:01:26;99989.83;;;19.69;68.89
42003;BME280;27693;50.506;30.832;2022-07-23T05:02:29;99992.59;;;19.68;69.20
42003;BME280;27693;50.506;30.832;2022-07-23T05:03:33;99990.29;;;19.74;69.24
42003;BME280;27693;50.506;30.832;2022-07-23T05:04:35;99990.29;;;19.74;69.24
42003;BME280;27693;50.506;30.832;2022-07-23T05:05:38;99995.47;;;19.76;68.64
42003;BME280;27693;50.506;30.832;2022-07-23T05:06:42;99995.93;;;19.81;68.47
42003;BME280;27693;50.506;30.832;2022-07-23T05:07:44;99998.34;;;19.84;68.01
42003;BME280;27693;50.506;30.832;2022-07-23T05:08:46;100000.25;;;19.82;68.12
42003;BME280;27693;50.506;30.832;2022-07-23T05:09:49;100001.57;;;19.88;68.24
42003;BME280;27693;50.506;30.832;2022-07-23T05:10:51;99993.41;;;19.91;67.97
42003;BME280;27693;50.506;30.832;2022-07-23T05:11:54;100000.12;;;19.95;67.74
42003;BME280;27693;50.506;30.832;2022-07-23T05:12:57;99998.20;;;19.97;67.80
42003;BME280;27693;50.506;30.832;2022-07-23T05:13:59;99998.79;;;20.01;67.90
42003;BME280;27693;50.506;30.832;2022-07-23T05:15:01;99996.61;;;20.06;68.04
42003;BME280;27693;50.506;30.832;2022-07-23T05:16:04;99999.97;;;20.08;67.85
42003;BME280;27693;50.506;30.832;2022-07-23T05:17:07;100003.33;;;20.10;67.73
42003;BME280;27693;50.506;30.832;2022-07-23T05:18:09;100002.38;;;20.11;67.61
42003;BME280;27693;50.506;30.832;2022-07-23T05:19:12;100004.42;;;20.07;67.27
42003;BME280;27693;50.506;30.832;2022-07-23T05:20:16;100005.25;;;20.08;67.19
42003;BME280;27693;50.506;30.832;2022-07-23T05:21:18;100008.85;;;20.07;67.49
42003;BME280;27693;50.506;30.832;2022-07-23T05:22:22;99999.84;;;20.09;67.54
42003;BME280;27693;50.506;30.832;2022-07-23T05:23:24;100004.30;;;20.09;67.56
42003;BME280;27693;50.506;30.832;2022-07-23T05:24:27;100004.88;;;20.13;67.31
42003;BME280;27693;50.506;30.832;2022-07-23T05:25:30;100009.80;;;20.17;67.32
42003;BME280;27693;50.506;30.832;2022-07-23T05:26:33;100004.01;;;20.23;67.26
42003;BME280;27693;50.506;30.832;2022-07-23T05:27:36;99999.31;;;20.27;66.92
42003;BME280;27693;50.506;30.832;2022-07-23T05:28:39;100001.58;;;20.32;66.83
42003;BME280;27693;50.506;30.832;2022-07-23T05:29:41;100001.07;;;20.38;66.84